sensor_id;sensor_type;location;lat;lon;timestamp;P1;durP1;ratioP1;P2;durP2;ratioP2
52984;SDS011;40499;47.830;19.026;2022-12-18T00:00:41;17.00;;;7.35;;
52984;SDS011;40499;47.830;19.026;2022-12-18T00:03:07;30.13;;;11.55;;
52984;SDS011;40499;47.830;19.026;2022-12-18T00:05:32;43.65;;;15.30;;
52984;SDS011;40499;47.830;19.026;2022-12-18T00:07:57;39.35;;;15.52;;
52984;SDS011;40499;47.830;19.026;2022-12-18T00:10:23;37.70;;;13.77;;
52984;SDS011;40499;47.830;19.026;2022-12-18T00:12:48;34.42;;;13.18;;
52984;SDS011;40499;47.830;19.026;2022-12-18T00:15:13;39.05;;;14.70;;
52984;SDS011;40499;47.830;19.026;2022-12-18T00:17:38;44.35;;;15.23;;
52984;SDS011;40499;47.830;19.026;2022-12-18T00:20:04;36.53;;;13.00;;
52984;SDS011;40499;47.830;19.026;2022-12-18T00:22:29;26.85;;;9.43;;
52984;SDS011;40499;47.830;19.026;2022-12-18T00:24:54;43.75;;;16.98;;
52984;SDS011;40499;47.830;19.026;2022-12-18T00:27:19;45.20;;;15.52;;
52984;SDS011;40499;47.830;19.026;2022-12-18T00:29:45;40.25;;;15.35;;
52984;SDS011;40499;47.830;19.026;2022-12-18T00:32:10;43.38;;;15.55;;
52984;SDS011;40499;47.830;19.026;2022-12-18T00:34:35;50.15;;;17.38;;
52984;SDS011;40499;47.830;19.026;2022-12-18T00:37:00;47.63;;;16.80;;
52984;SDS011;40499;47.830;19.026;2022-12-18T00:39:26;47.17;;;19.42;;
52984;SDS011;40499;47.830;19.026;2022-12-18T00:41:51;51.75;;;17.45;;
52984;SDS011;40499;47.830;19.026;2022-12-18T00:44:35;50.97;;;18.05;;
52984;SDS011;40499;47.830;19.026;2022-12-18T00:47:00;46.45;;;19.05;;
52984;SDS011;40499;47.830;19.026;2022-12-18T00:49:25;56.90;;;19.55;;
52984;SDS011;40499;47.830;19.026;2022-12-18T00:51:50;51.92;;;18.35;;
52984;SDS011;40499;47.830;19.026;2022-12-18T00:54:16;53.25;;;17.35;;
52984;SDS011;40499;47.830;19.026;2022-12-18T00:56:42;47.15;;;15.75;;
52984;SDS011;40499;47.830;19.026;2022-12-18T00:59:07;52.50;;;19.23;;
52984;SDS011;40499;47.830;19.026;2022-12-18T01:01:33;54.33;;;20.92;;
52984;SDS011;40499;47.830;19.026;2022-12-18T01:03:59;48.95;;;16.15;;
52984;SDS011;40499;47.830;19.026;2022-12-18T01:06:24;49.10;;;17.13;;
52984;SDS011;40499;47.830;19.026;2022-12-18T01:08:49;51.55;;;19.58;;
52984;SDS011;40499;47.830;19.026;2022-12-18T01:11:19;49.60;;;18.58;;
52984;SDS011;40499;47.830;19.026;2022-12-18T01:13:44;49.72;;;18.92;;
52984;SDS011;40499;47.830;19.026;2022-12-18T01:16:13;45.20;;;17.88;;
52984;SDS011;40499;47.830;19.026;2022-12-18T01:18:39;55.17;;;19.38;;
52984;SDS011;40499;47.830;19.026;2022-12-18T01:21:08;55.08;;;18.42;;
52984;SDS011;40499;47.830;19.026;2022-12-18T01:23:33;46.67;;;17.50;;
52984;SDS011;40499;47.830;19.026;2022-12-18T01:26:03;43.00;;;13.85;;
52984;SDS011;40499;47.830;19.026;2022-12-18T01:28:28;51.05;;;19.20;;
52984;SDS011;40499;47.830;19.026;2022-12-18T01:30:53;46.55;;;17.17;;
52984;SDS011;40499;47.830;19.026;2022-12-18T01:33:18;45.45;;;16.65;;
52984;SDS011;40499;47.830;19.026;2022-12-18T01:35:44;35.25;;;13.73;;
52984;SDS011;40499;47.830;19.026;2022-12-18T01:38:09;45.90;;;16.90;;
52984;SDS011;40499;47.830;19.026;2022-12-18T01:40:34;51.25;;;18.48;;
52984;SDS011;40499;47.830;19.026;2022-12-18T01:43:00;53.45;;;17.75;;
52984;SDS011;40499;47.830;19.026;2022-12-18T01:45:28;49.97;;;17.98;;
52984;SDS011;40499;47.830;19.026;2022-12-18T01:48:04;47.47;;;19.27;;
52984;SDS011;40499;47.830;19.026;2022-12-18T01:52:58;51.63;;;17.33;;
52984;SDS011;40499;47.830;19.026;2022-12-18T01:55:25;45.83;;;17.00;;
52984;SDS011;40499;47.830;19.026;2022-12-18T01:57:52;41.42;;;16.15;;
52984;SDS011;40499;47.830;19.026;2022-12-18T02:00:18;45.63;;;16.65;;
52984;SDS011;40499;47.830;19.026;2022-12-18T02:02:45;49.58;;;18.85;;
52984;SDS011;40499;47.830;19.026;2022-12-18T02:05:11;42.42;;;17.67;;
52984;SDS011;40499;47.830;19.026;2022-12-18T02:07:41;15.65;;;7.18;;
52984;SDS011;40499;47.830;19.026;2022-12-18T02:12:41;47.67;;;18.27;;
52984;SDS011;40499;47.830;19.026;2022-12-18T02:17:38;47.38;;;16.90;;
52984;SDS011;40499;47.830;19.026;2022-12-18T02:27:48;40.53;;;13.70;;
52984;SDS011;40499;47.830;19.026;2022-12-18T02:30:15;49.65;;;18.85;;
52984;SDS011;40499;47.830;19.026;2022-12-18T02:32:42;44.90;;;16.42;;
52984;SDS011;40499;47.830;19.026;2022-12-18T02:35:22;55.38;;;19.90;;
52984;SDS011;40499;47.830;19.026;2022-12-18T02:37:47;51.92;;;18.52;;
52984;SDS011;40499;47.830;19.026;2022-12-18T02:40:13;56.70;;;19.80;;
52984;SDS011;40499;47.830;19.026;2022-12-18T02:42:39;55.95;;;19.88;;
52984;SDS011;40499;47.830;19.026;2022-12-18T02:45:04;52.78;;;17.95;;
52984;SDS011;40499;47.830;19.026;2022-12-18T02:47:31;45.28;;;17.00;;
52984;SDS011;40499;47.830;19.026;2022-12-18T02:50:00;46.10;;;16.88;;
52984;SDS011;40499;47.830;19.026;2022-12-18T02:52:51;47.67;;;17.00;;
52984;SDS011;40499;47.830;19.026;2022-12-18T02:57:54;57.20;;;19.13;;
52984;SDS011;40499;47.830;19.026;2022-12-18T03:05:28;40.70;;;16.25;;
52984;SDS011;40499;47.830;19.026;2022-12-18T03:07:56;55.03;;;19.33;;
52984;SDS011;40499;47.830;19.026;2022-12-18T03:10:27;51.35;;;19.90;;
52984;SDS011;40499;47.830;19.026;2022-12-18T03:13:36;56.53;;;18.88;;
52984;SDS011;40499;47.830;19.026;2022-12-18T03:15:51;57.92;;;20.88;;
52984;SDS011;40499;47.830;19.026;2022-12-18T03:18:29;51.25;;;19.25;;
52984;SDS011;40499;47.830;19.026;2022-12-18T03:20:55;52.83;;;20.45;;
52984;SDS011;40499;47.830;19.026;2022-12-18T03:23:24;50.65;;;19.17;;
52984;SDS011;40499;47.830;19.026;2022-12-18T03:25:51;48.53;;;17.77;;
52984;SDS011;40499;47.830;19.026;2022-12-18T03:28:19;49.22;;;19.35;;
52984;SDS011;40499;47.830;19.026;2022-12-18T03:30:45;54.38;;;21.00;;
52984;SDS011;40499;47.830;19.026;2022-12-18T03:33:13;55.00;;;20.45;;
52984;SDS011;40499;47.830;19.026;2022-12-18T03:35:42;63.97;;;19.98;;
52984;SDS011;40499;47.830;19.026;2022-12-18T03:38:07;53.30;;;19.10;;
52984;SDS011;40499;47.830;19.026;2022-12-18T03:46:05;52.42;;;18.80;;
52984;SDS011;40499;47.830;19.026;2022-12-18T03:48:33;53.25;;;20.02;;
52984;SDS011;40499;47.830;19.026;2022-12-18T03:51:07;55.30;;;20.00;;
52984;SDS011;40499;47.830;19.026;2022-12-18T03:53:37;49.28;;;17.75;;
52984;SDS011;40499;47.830;19.026;2022-12-18T03:56:05;51.67;;;19.67;;
52984;SDS011;40499;47.830;19.026;2022-12-18T03:58:31;54.15;;;19.65;;
52984;SDS011;40499;47.830;19.026;2022-12-18T04:00:59;55.83;;;20.38;;
52984;SDS011;40499;47.830;19.026;2022-12-18T04:03:25;48.20;;;18.65;;
52984;SDS011;40499;47.830;19.026;2022-12-18T04:05:51;52.42;;;19.17;;
52984;SDS011;40499;47.830;19.026;2022-12-18T04:08:17;56.22;;;19.95;;
52984;SDS011;40499;47.830;19.026;2022-12-18T04:10:42;54.33;;;19.35;;
52984;SDS011;40499;47.830;19.026;2022-12-18T04:13:08;49.00;;;19.23;;
52984;SDS011;40499;47.830;19.026;2022-12-18T04:15:34;43.70;;;16.50;;
52984;SDS011;40499;47.830;19.026;2022-12-18T04:18:01;58.45;;;21.00;;
52984;SDS011;40499;47.830;19.026;2022-12-18T04:20:26;48.08;;;19.02;;
52984;SDS011;40499;47.830;19.026;2022-12-18T04:22:52;27.23;;;11.63;;
52984;SDS011;40499;47.830;19.026;2022-12-18T04:25:17;51.72;;;21.05;;
52984;SDS011;40499;47.830;19.026;2022-12-18T04:27:42;53.25;;;19.60;;
52984;SDS011;40499;47.830;19.026;2022-12-18T04:30:08;55.75;;;20.83;;
52984;SDS011;40499;47.830;19.026;2022-12-18T04:32:33;50.47;;;19.20;;
52984;SDS011;40499;47.830;19.026;2022-12-18T04:34:59;51.28;;;20.10;;
52984;SDS011;40499;47.830;19.026;2022-12-18T04:37:24;50.42;;;18.83;;
52984;SDS011;40499;47.830;19.026;2022-12-18T04:39:49;59.80;;;19.83;;
52984;SDS011;40499;47.830;19.026;2022-12-18T04:42:14;52.67;;;19.90;;
52984;SDS011;40499;47.830;19.026;2022-12-18T04:44:40;54.42;;;21.50;;
52984;SDS011;40499;47.830;19.026;2022-12-18T04:47:05;52.30;;;18.70;;
52984;SDS011;40499;47.830;19.026;2022-12-18T04:49:30;48.38;;;19.52;;
52984;SDS011;40499;47.830;19.026;2022-12-18T04:51:55;51.78;;;19.73;;
52984;SDS011;40499;47.830;19.026;2022-12-18T04:54:21;53.67;;;18.73;;
52984;SDS011;40499;47.830;19.026;2022-12-18T04:56:46;49.55;;;19.52;;
52984;SDS011;40499;47.830;19.026;2022-12-18T04:59:11;50.25;;;18.73;;
52984;SDS011;40499;47.830;19.026;2022-12-18T05:01:36;55.13;;;19.58;;
52984;SDS011;40499;47.830;19.026;2022-12-18T05:04:02;46.25;;;17.95;;
52984;SDS011;40499;47.830;19.026;2022-12-18T05:06:27;53.50;;;20.35;;
52984;SDS011;40499;47.830;19.026;2022-12-18T05:08:52;51.58;;;19.20;;
52984;SDS011;40499;47.830;19.026;2022-12-18T05:11:17;49.72;;;19.13;;
52984;SDS011;40499;47.830;19.026;2022-12-18T05:13:43;52.42;;;18.88;;
52984;SDS011;40499;47.830;19.026;2022-12-18T05:16:09;53.58;;;18.95;;
52984;SDS011;40499;47.830;19.026;2022-12-18T05:18:34;53.80;;;19.38;;
52984;SDS011;40499;47.830;19.026;2022-12-18T05:21:01;52.13;;;19.58;;
52984;SDS011;40499;47.830;19.026;2022-12-18T05:23:26;51.58;;;18.15;;
52984;SDS011;40499;47.830;19.026;2022-12-18T05:25:52;54.17;;;19.85;;
52984;SDS011;40499;47.830;19.026;2022-12-18T05:28:17;49.72;;;18.73;;
52984;SDS011;40499;47.830;19.026;2022-12-18T05:30:44;46.17;;;18.55;;
52984;SDS011;40499;47.830;19.026;2022-12-18T05:33:09;55.63;;;19.95;;
52984;SDS011;40499;47.830;19.026;2022-12-18T05:35:34;44.58;;;17.10;;
52984;SDS011;40499;47.830;19.026;2022-12-18T05:38:00;42.85;;;15.68;;
52984;SDS011;40499;47.830;19.026;2022-12-18T05:40:25;53.72;;;19.58;;
52984;SDS011;40499;47.830;19.026;2022-12-18T05:42:50;53.28;;;17.58;;
52984;SDS011;40499;47.830;19.026;2022-12-18T05:45:15;45.83;;;18.33;;
52984;SDS011;40499;47.830;19.026;2022-12-18T05:47:41;56.22;;;21.15;;
52984;SDS011;40499;47.830;19.026;2022-12-18T05:50:06;54.60;;;20.83;;
52984;SDS011;40499;47.830;19.026;2022-12-18T05:52:32;61.10;;;20.65;;
52984;SDS011;40499;47.830;19.026;2022-12-18T05:54:57;59.38;;;21.40;;
52984;SDS011;40499;47.830;19.026;2022-12-18T05:57:23;56.40;;;19.25;;
52984;SDS011;40499;47.830;19.026;2022-12-18T05:59:49;54.25;;;20.42;;
52984;SDS011;40499;47.830;19.026;2022-12-18T06:02:14;60.17;;;19.02;;
52984;SDS011;40499;47.830;19.026;2022-12-18T06:04:39;50.25;;;18.98;;
52984;SDS011;40499;47.830;19.026;2022-12-18T06:07:04;57.85;;;22.08;;
52984;SDS011;40499;47.830;19.026;2022-12-18T06:09:30;65.55;;;23.77;;
52984;SDS011;40499;47.830;19.026;2022-12-18T06:11:55;62.08;;;20.75;;
52984;SDS011;40499;47.830;19.026;2022-12-18T06:14:20;59.80;;;20.33;;
52984;SDS011;40499;47.830;19.026;2022-12-18T06:16:45;63.90;;;24.15;;
52984;SDS011;40499;47.830;19.026;2022-12-18T06:19:13;55.83;;;20.48;;
52984;SDS011;40499;47.830;19.026;2022-12-18T06:21:39;53.25;;;20.75;;
52984;SDS011;40499;47.830;19.026;2022-12-18T06:24:04;60.15;;;22.50;;
52984;SDS011;40499;47.830;19.026;2022-12-18T06:26:29;66.20;;;25.13;;
52984;SDS011;40499;47.830;19.026;2022-12-18T06:28:55;62.58;;;26.13;;
52984;SDS011;40499;47.830;19.026;2022-12-18T06:31:20;57.60;;;22.02;;
52984;SDS011;40499;47.830;19.026;2022-12-18T06:33:45;61.63;;;20.42;;
52984;SDS011;40499;47.830;19.026;2022-12-18T06:36:11;57.15;;;20.90;;
52984;SDS011;40499;47.830;19.026;2022-12-18T06:38:37;49.50;;;18.23;;
52984;SDS011;40499;47.830;19.026;2022-12-18T06:41:09;47.60;;;19.00;;
52984;SDS011;40499;47.830;19.026;2022-12-18T06:43:35;52.00;;;20.85;;
52984;SDS011;40499;47.830;19.026;2022-12-18T06:46:01;58.67;;;20.35;;
52984;SDS011;40499;47.830;19.026;2022-12-18T06:48:27;55.30;;;20.85;;
52984;SDS011;40499;47.830;19.026;2022-12-18T06:50:52;51.38;;;17.50;;
52984;SDS011;40499;47.830;19.026;2022-12-18T06:53:17;51.50;;;19.85;;
52984;SDS011;40499;47.830;19.026;2022-12-18T06:55:42;52.08;;;19.63;;
52984;SDS011;40499;47.830;19.026;2022-12-18T06:58:08;49.30;;;19.20;;
52984;SDS011;40499;47.830;19.026;2022-12-18T07:00:33;58.78;;;22.65;;
52984;SDS011;40499;47.830;19.026;2022-12-18T07:02:58;54.08;;;20.48;;
52984;SDS011;40499;47.830;19.026;2022-12-18T07:05:23;55.28;;;22.02;;
52984;SDS011;40499;47.830;19.026;2022-12-18T07:07:49;54.33;;;23.30;;
52984;SDS011;40499;47.830;19.026;2022-12-18T07:10:14;59.05;;;22.55;;
52984;SDS011;40499;47.830;19.026;2022-12-18T07:12:39;59.10;;;22.67;;
52984;SDS011;40499;47.830;19.026;2022-12-18T07:15:05;55.03;;;21.23;;
52984;SDS011;40499;47.830;19.026;2022-12-18T07:17:30;57.53;;;22.17;;
52984;SDS011;40499;47.830;19.026;2022-12-18T07:19:55;58.80;;;22.60;;
52984;SDS011;40499;47.830;19.026;2022-12-18T07:22:21;59.33;;;23.10;;
52984;SDS011;40499;47.830;19.026;2022-12-18T07:24:46;50.67;;;22.02;;
52984;SDS011;40499;47.830;19.026;2022-12-18T07:27:12;62.35;;;24.08;;
52984;SDS011;40499;47.830;19.026;2022-12-18T07:29:37;58.30;;;23.73;;
52984;SDS011;40499;47.830;19.026;2022-12-18T07:32:02;65.03;;;22.33;;
52984;SDS011;40499;47.830;19.026;2022-12-18T07:34:27;56.28;;;22.70;;
52984;SDS011;40499;47.830;19.026;2022-12-18T07:36:53;65.13;;;25.08;;
52984;SDS011;40499;47.830;19.026;2022-12-18T07:39:18;61.30;;;23.45;;
52984;SDS011;40499;47.830;19.026;2022-12-18T07:41:43;63.72;;;25.77;;
52984;SDS011;40499;47.830;19.026;2022-12-18T07:44:11;69.18;;;24.58;;
52984;SDS011;40499;47.830;19.026;2022-12-18T07:46:36;71.00;;;26.60;;
52984;SDS011;40499;47.830;19.026;2022-12-18T07:49:01;81.15;;;30.63;;
52984;SDS011;40499;47.830;19.026;2022-12-18T07:51:26;96.07;;;36.40;;
52984;SDS011;40499;47.830;19.026;2022-12-18T07:53:52;83.47;;;31.70;;
52984;SDS011;40499;47.830;19.026;2022-12-18T07:56:17;107.82;;;41.10;;
52984;SDS011;40499;47.830;19.026;2022-12-18T07:58:42;95.65;;;37.15;;
52984;SDS011;40499;47.830;19.026;2022-12-18T08:01:13;120.57;;;43.03;;
52984;SDS011;40499;47.830;19.026;2022-12-18T08:03:39;114.57;;;38.97;;
52984;SDS011;40499;47.830;19.026;2022-12-18T08:06:05;103.10;;;36.47;;
52984;SDS011;40499;47.830;19.026;2022-12-18T08:08:31;98.75;;;35.95;;
52984;SDS011;40499;47.830;19.026;2022-12-18T08:10:57;77.82;;;28.38;;
52984;SDS011;40499;47.830;19.026;2022-12-18T08:13:22;70.45;;;27.17;;
52984;SDS011;40499;47.830;19.026;2022-12-18T08:15:57;55.63;;;23.60;;
52984;SDS011;40499;47.830;19.026;2022-12-18T08:18:23;66.68;;;24.92;;
52984;SDS011;40499;47.830;19.026;2022-12-18T08:20:49;70.65;;;25.95;;
52984;SDS011;40499;47.830;19.026;2022-12-18T08:23:14;63.95;;;25.38;;
52984;SDS011;40499;47.830;19.026;2022-12-18T08:25:39;62.10;;;24.10;;
52984;SDS011;40499;47.830;19.026;2022-12-18T08:28:04;59.17;;;23.15;;
52984;SDS011;40499;47.830;19.026;2022-12-18T08:30:30;66.35;;;23.55;;
52984;SDS011;40499;47.830;19.026;2022-12-18T08:32:55;70.90;;;25.50;;
52984;SDS011;40499;47.830;19.026;2022-12-18T08:35:20;51.35;;;22.30;;
52984;SDS011;40499;47.830;19.026;2022-12-18T08:37:45;61.88;;;23.33;;
52984;SDS011;40499;47.830;19.026;2022-12-18T08:40:11;66.30;;;25.67;;
52984;SDS011;40499;47.830;19.026;2022-12-18T08:42:37;62.50;;;24.08;;
52984;SDS011;40499;47.830;19.026;2022-12-18T08:45:26;68.18;;;24.23;;
52984;SDS011;40499;47.830;19.026;2022-12-18T08:47:51;70.70;;;26.17;;
52984;SDS011;40499;47.830;19.026;2022-12-18T08:50:16;69.15;;;25.15;;
52984;SDS011;40499;47.830;19.026;2022-12-18T08:52:41;58.67;;;21.65;;
52984;SDS011;40499;47.830;19.026;2022-12-18T08:55:07;60.45;;;22.92;;
52984;SDS011;40499;47.830;19.026;2022-12-18T08:57:33;68.25;;;25.17;;
52984;SDS011;40499;47.830;19.026;2022-12-18T08:59:58;71.18;;;26.05;;
52984;SDS011;40499;47.830;19.026;2022-12-18T09:02:23;63.03;;;23.35;;
52984;SDS011;40499;47.830;19.026;2022-12-18T09:04:49;62.45;;;19.80;;
52984;SDS011;40499;47.830;19.026;2022-12-18T09:07:14;62.30;;;22.42;;
52984;SDS011;40499;47.830;19.026;2022-12-18T09:09:39;28.95;;;12.35;;
52984;SDS011;40499;47.830;19.026;2022-12-18T09:12:04;34.80;;;14.80;;
52984;SDS011;40499;47.830;19.026;2022-12-18T09:14:30;55.20;;;21.23;;
52984;SDS011;40499;47.830;19.026;2022-12-18T09:16:55;59.17;;;22.17;;
52984;SDS011;40499;47.830;19.026;2022-12-18T09:19:20;64.22;;;22.98;;
52984;SDS011;40499;47.830;19.026;2022-12-18T09:21:45;41.65;;;17.95;;
52984;SDS011;40499;47.830;19.026;2022-12-18T09:24:14;25.75;;;9.80;;
52984;SDS011;40499;47.830;19.026;2022-12-18T09:26:39;65.90;;;22.20;;
52984;SDS011;40499;47.830;19.026;2022-12-18T09:29:05;42.05;;;17.95;;
52984;SDS011;40499;47.830;19.026;2022-12-18T09:31:32;55.42;;;22.15;;
52984;SDS011;40499;47.830;19.026;2022-12-18T09:33:57;46.05;;;18.33;;
52984;SDS011;40499;47.830;19.026;2022-12-18T09:36:22;64.53;;;24.48;;
52984;SDS011;40499;47.830;19.026;2022-12-18T09:38:47;66.70;;;22.38;;
52984;SDS011;40499;47.830;19.026;2022-12-18T09:43:48;49.25;;;16.80;;
52984;SDS011;40499;47.830;19.026;2022-12-18T09:46:18;59.95;;;23.63;;
52984;SDS011;40499;47.830;19.026;2022-12-18T09:48:45;57.13;;;21.45;;
52984;SDS011;40499;47.830;19.026;2022-12-18T09:53:39;59.08;;;22.10;;
52984;SDS011;40499;47.830;19.026;2022-12-18T09:56:06;62.60;;;23.35;;
52984;SDS011;40499;47.830;19.026;2022-12-18T09:58:36;60.80;;;22.50;;
52984;SDS011;40499;47.830;19.026;2022-12-18T10:01:09;53.55;;;19.63;;
52984;SDS011;40499;47.830;19.026;2022-12-18T10:03:35;69.57;;;23.33;;
52984;SDS011;40499;47.830;19.026;2022-12-18T10:06:08;61.35;;;23.60;;
52984;SDS011;40499;47.830;19.026;2022-12-18T10:11:20;49.87;;;19.17;;
52984;SDS011;40499;47.830;19.026;2022-12-18T10:13:53;22.02;;;9.68;;
52984;SDS011;40499;47.830;19.026;2022-12-18T10:16:28;39.45;;;13.48;;
52984;SDS011;40499;47.830;19.026;2022-12-18T10:19:09;53.63;;;21.02;;
52984;SDS011;40499;47.830;19.026;2022-12-18T10:21:44;56.97;;;21.90;;
52984;SDS011;40499;47.830;19.026;2022-12-18T10:26:46;56.30;;;22.10;;
52984;SDS011;40499;47.830;19.026;2022-12-18T10:29:12;55.67;;;22.45;;
52984;SDS011;40499;47.830;19.026;2022-12-18T10:31:37;35.47;;;12.52;;
52984;SDS011;40499;47.830;19.026;2022-12-18T10:34:03;66.47;;;25.27;;
52984;SDS011;40499;47.830;19.026;2022-12-18T10:36:28;51.00;;;20.17;;
52984;SDS011;40499;47.830;19.026;2022-12-18T10:38:53;64.75;;;25.95;;
52984;SDS011;40499;47.830;19.026;2022-12-18T10:41:26;28.48;;;12.65;;
52984;SDS011;40499;47.830;19.026;2022-12-18T10:44:15;43.63;;;16.33;;
52984;SDS011;40499;47.830;19.026;2022-12-18T10:46:37;30.90;;;11.13;;
52984;SDS011;40499;47.830;19.026;2022-12-18T10:49:02;46.45;;;16.85;;
52984;SDS011;40499;47.830;19.026;2022-12-18T10:51:30;47.72;;;18.27;;
52984;SDS011;40499;47.830;19.026;2022-12-18T10:56:27;48.53;;;19.17;;
52984;SDS011;40499;47.830;19.026;2022-12-18T10:58:58;30.88;;;12.90;;
52984;SDS011;40499;47.830;19.026;2022-12-18T11:01:23;49.65;;;18.05;;
52984;SDS011;40499;47.830;19.026;2022-12-18T11:06:21;26.63;;;10.90;;
52984;SDS011;40499;47.830;19.026;2022-12-18T11:08:59;36.28;;;13.80;;
52984;SDS011;40499;47.830;19.026;2022-12-18T11:11:25;29.08;;;12.52;;
52984;SDS011;40499;47.830;19.026;2022-12-18T11:13:58;39.58;;;13.77;;
52984;SDS011;40499;47.830;19.026;2022-12-18T11:16:24;46.78;;;17.13;;
52984;SDS011;40499;47.830;19.026;2022-12-18T11:18:50;44.50;;;17.02;;
52984;SDS011;40499;47.830;19.026;2022-12-18T11:21:15;44.80;;;16.00;;
52984;SDS011;40499;47.830;19.026;2022-12-18T11:23:52;37.67;;;13.80;;
52984;SDS011;40499;47.830;19.026;2022-12-18T11:26:22;37.40;;;14.80;;
52984;SDS011;40499;47.830;19.026;2022-12-18T11:29:10;44.17;;;15.55;;
52984;SDS011;40499;47.830;19.026;2022-12-18T11:31:40;40.25;;;15.13;;
52984;SDS011;40499;47.830;19.026;2022-12-18T11:34:10;36.13;;;15.73;;
52984;SDS011;40499;47.830;19.026;2022-12-18T11:36:42;38.05;;;15.13;;
52984;SDS011;40499;47.830;19.026;2022-12-18T11:39:23;23.42;;;10.57;;
52984;SDS011;40499;47.830;19.026;2022-12-18T11:41:53;37.78;;;15.05;;
52984;SDS011;40499;47.830;19.026;2022-12-18T11:44:40;35.67;;;13.73;;
52984;SDS011;40499;47.830;19.026;2022-12-18T11:47:12;43.95;;;15.07;;
52984;SDS011;40499;47.830;19.026;2022-12-18T11:49:38;33.92;;;11.68;;
52984;SDS011;40499;47.830;19.026;2022-12-18T11:54:33;37.65;;;14.45;;
52984;SDS011;40499;47.830;19.026;2022-12-18T12:07:33;25.25;;;10.25;;
52984;SDS011;40499;47.830;19.026;2022-12-18T12:10:31;38.70;;;14.40;;
52984;SDS011;40499;47.830;19.026;2022-12-18T12:13:16;40.80;;;14.40;;
52984;SDS011;40499;47.830;19.026;2022-12-18T12:29:19;35.58;;;13.15;;
52984;SDS011;40499;47.830;19.026;2022-12-18T12:34:45;37.35;;;14.38;;
52984;SDS011;40499;47.830;19.026;2022-12-18T12:37:29;37.00;;;13.80;;
52984;SDS011;40499;47.830;19.026;2022-12-18T12:40:06;42.10;;;15.77;;
52984;SDS011;40499;47.830;19.026;2022-12-18T12:45:44;40.17;;;15.23;;
52984;SDS011;40499;47.830;19.026;2022-12-18T12:48:12;34.83;;;14.10;;
52984;SDS011;40499;47.830;19.026;2022-12-18T12:50:38;39.72;;;15.93;;
52984;SDS011;40499;47.830;19.026;2022-12-18T12:53:06;36.50;;;13.63;;
52984;SDS011;40499;47.830;19.026;2022-12-18T12:55:32;30.90;;;12.10;;
52984;SDS011;40499;47.830;19.026;2022-12-18T13:00:39;38.38;;;13.43;;
52984;SDS011;40499;47.830;19.026;2022-12-18T13:03:15;37.42;;;14.50;;
52984;SDS011;40499;47.830;19.026;2022-12-18T13:08:52;41.58;;;14.07;;
52984;SDS011;40499;47.830;19.026;2022-12-18T13:14:20;37.38;;;14.63;;
52984;SDS011;40499;47.830;19.026;2022-12-18T13:16:46;39.70;;;14.57;;
52984;SDS011;40499;47.830;19.026;2022-12-18T13:19:20;37.97;;;14.23;;
52984;SDS011;40499;47.830;19.026;2022-12-18T13:21:51;39.28;;;13.93;;
52984;SDS011;40499;47.830;19.026;2022-12-18T13:26:48;32.50;;;12.80;;
52984;SDS011;40499;47.830;19.026;2022-12-18T13:29:21;31.63;;;14.57;;
52984;SDS011;40499;47.830;19.026;2022-12-18T13:31:59;36.13;;;14.07;;
52984;SDS011;40499;47.830;19.026;2022-12-18T13:34:26;42.15;;;15.63;;
52984;SDS011;40499;47.830;19.026;2022-12-18T13:36:52;47.80;;;15.82;;
52984;SDS011;40499;47.830;19.026;2022-12-18T13:41:46;40.70;;;14.43;;
52984;SDS011;40499;47.830;19.026;2022-12-18T13:46:47;42.65;;;13.45;;
52984;SDS011;40499;47.830;19.026;2022-12-18T13:51:39;37.10;;;15.73;;
52984;SDS011;40499;47.830;19.026;2022-12-18T13:54:51;38.83;;;14.45;;
52984;SDS011;40499;47.830;19.026;2022-12-18T13:56:51;39.72;;;15.80;;
52984;SDS011;40499;47.830;19.026;2022-12-18T13:59:26;48.92;;;16.52;;
52984;SDS011;40499;47.830;19.026;2022-12-18T14:04:27;55.67;;;22.03;;
52984;SDS011;40499;47.830;19.026;2022-12-18T14:07:03;59.40;;;21.30;;
52984;SDS011;40499;47.830;19.026;2022-12-18T14:09:30;73.20;;;23.35;;
52984;SDS011;40499;47.830;19.026;2022-12-18T14:11:56;65.43;;;24.20;;
52984;SDS011;40499;47.830;19.026;2022-12-18T14:14:42;59.35;;;21.33;;
52984;SDS011;40499;47.830;19.026;2022-12-18T14:17:12;63.85;;;21.30;;
52984;SDS011;40499;47.830;19.026;2022-12-18T14:19:41;60.45;;;20.30;;
52984;SDS011;40499;47.830;19.026;2022-12-18T14:22:10;63.03;;;21.35;;
52984;SDS011;40499;47.830;19.026;2022-12-18T14:24:36;59.15;;;21.52;;
52984;SDS011;40499;47.830;19.026;2022-12-18T14:27:12;59.47;;;20.63;;
52984;SDS011;40499;47.830;19.026;2022-12-18T14:29:38;67.38;;;22.42;;
52984;SDS011;40499;47.830;19.026;2022-12-18T14:34:33;61.90;;;21.67;;
52984;SDS011;40499;47.830;19.026;2022-12-18T14:36:58;62.50;;;22.60;;
52984;SDS011;40499;47.830;19.026;2022-12-18T14:39:24;75.20;;;23.67;;
52984;SDS011;40499;47.830;19.026;2022-12-18T14:41:50;64.32;;;24.95;;
52984;SDS011;40499;47.830;19.026;2022-12-18T14:44:16;75.82;;;27.90;;
52984;SDS011;40499;47.830;19.026;2022-12-18T14:46:42;86.38;;;30.50;;
52984;SDS011;40499;47.830;19.026;2022-12-18T14:49:28;91.97;;;32.22;;
52984;SDS011;40499;47.830;19.026;2022-12-18T14:52:04;83.68;;;27.20;;
52984;SDS011;40499;47.830;19.026;2022-12-18T14:54:30;99.22;;;32.50;;
52984;SDS011;40499;47.830;19.026;2022-12-18T14:56:59;105.90;;;35.05;;
52984;SDS011;40499;47.830;19.026;2022-12-18T14:59:25;113.10;;;35.55;;
52984;SDS011;40499;47.830;19.026;2022-12-18T15:04:36;97.75;;;34.83;;
52984;SDS011;40499;47.830;19.026;2022-12-18T15:07:23;95.55;;;32.63;;
52984;SDS011;40499;47.830;19.026;2022-12-18T15:12:35;78.55;;;30.20;;
52984;SDS011;40499;47.830;19.026;2022-12-18T15:15:02;77.43;;;28.17;;
52984;SDS011;40499;47.830;19.026;2022-12-18T15:17:28;73.47;;;28.73;;
52984;SDS011;40499;47.830;19.026;2022-12-18T15:19:58;76.63;;;28.88;;
52984;SDS011;40499;47.830;19.026;2022-12-18T15:22:28;77.50;;;28.70;;
52984;SDS011;40499;47.830;19.026;2022-12-18T15:24:54;87.90;;;31.40;;
52984;SDS011;40499;47.830;19.026;2022-12-18T15:27:30;80.32;;;28.98;;
52984;SDS011;40499;47.830;19.026;2022-12-18T15:30:02;67.80;;;26.83;;
52984;SDS011;40499;47.830;19.026;2022-12-18T15:32:28;65.50;;;26.08;;
52984;SDS011;40499;47.830;19.026;2022-12-18T15:35:07;72.53;;;26.83;;
52984;SDS011;40499;47.830;19.026;2022-12-18T15:37:39;68.38;;;24.67;;
52984;SDS011;40499;47.830;19.026;2022-12-18T15:40:05;75.53;;;25.40;;
52984;SDS011;40499;47.830;19.026;2022-12-18T15:42:32;66.40;;;23.23;;
52984;SDS011;40499;47.830;19.026;2022-12-18T15:45:16;63.78;;;23.75;;
52984;SDS011;40499;47.830;19.026;2022-12-18T15:47:41;66.07;;;22.70;;
52984;SDS011;40499;47.830;19.026;2022-12-18T15:50:07;64.72;;;23.30;;
52984;SDS011;40499;47.830;19.026;2022-12-18T15:52:34;79.13;;;25.88;;
52984;SDS011;40499;47.830;19.026;2022-12-18T15:55:01;71.85;;;24.85;;
52984;SDS011;40499;47.830;19.026;2022-12-18T15:57:45;69.63;;;24.60;;